createdAt,value
2022-11-06T00:00:15.208Z,12.10
2022-11-06T00:01:15.219Z,11.50
2022-11-06T00:02:20.462Z,11.00
2022-11-06T00:03:15.233Z,11.10
2022-11-06T00:04:15.192Z,10.50
2022-11-06T00:05:15.188Z,11.30
2022-11-06T00:06:15.182Z,11.50
2022-11-06T00:07:15.180Z,10.90
2022-11-06T00:08:15.552Z,11.40
2022-11-06T00:09:15.180Z,10.90
2022-11-06T00:10:15.171Z,10.40
2022-11-06T00:11:15.171Z,11.10
2022-11-06T00:12:15.163Z,11.40
2022-11-06T00:13:15.157Z,12.80
2022-11-06T00:14:15.154Z,10.70
2022-11-06T00:15:15.154Z,10.60
2022-11-06T00:16:15.154Z,10.10
2022-11-06T00:17:15.167Z,9.70
2022-11-06T00:18:15.560Z,10.90
2022-11-06T00:19:15.137Z,10.50
2022-11-06T00:20:15.133Z,11.00
2022-11-06T00:21:15.134Z,9.70
2022-11-06T00:22:15.131Z,10.00
2022-11-06T00:23:15.131Z,10.00
2022-11-06T00:24:15.121Z,10.80
2022-11-06T00:25:15.116Z,10.80
2022-11-06T00:26:15.113Z,9.60
2022-11-06T00:27:15.110Z,10.30
2022-11-06T00:28:15.503Z,9.90
2022-11-06T00:29:15.118Z,10.00
2022-11-06T00:30:15.100Z,11.70
2022-11-06T00:31:15.097Z,9.60
2022-11-06T00:32:15.095Z,10.50
2022-11-06T00:33:15.114Z,10.30
2022-11-06T00:34:15.083Z,9.80
2022-11-06T00:35:15.084Z,10.60
2022-11-06T00:36:15.077Z,9.30
2022-11-06T00:37:15.076Z,10.60
2022-11-06T00:38:15.530Z,9.10
2022-11-06T00:39:15.070Z,10.50
2022-11-06T00:40:15.065Z,10.30
2022-11-06T00:41:15.064Z,8.90
2022-11-06T00:42:15.065Z,10.20
2022-11-06T00:43:15.059Z,10.40
2022-11-06T00:44:15.050Z,8.80
2022-11-06T00:45:15.048Z,10.00
2022-11-06T00:46:15.051Z,10.60
2022-11-06T00:47:15.042Z,9.40
2022-11-06T00:48:15.357Z,8.50
2022-11-06T00:49:15.056Z,10.00
2022-11-06T00:50:15.030Z,8.80
2022-11-06T00:51:15.032Z,8.60
2022-11-06T00:52:15.025Z,8.40
2022-11-06T00:53:15.022Z,9.60
2022-11-06T00:54:15.017Z,8.40
2022-11-06T00:55:15.013Z,9.20
2022-11-06T00:56:15.011Z,7.80
2022-11-06T00:57:15.008Z,7.90
2022-11-06T00:58:15.323Z,7.10
2022-11-06T00:59:15.002Z,9.90
2022-11-06T01:00:15.001Z,8.40
2022-11-06T01:01:15.043Z,7.40
2022-11-06T01:02:15.174Z,7.70
2022-11-06T01:03:14.986Z,8.20
2022-11-06T01:04:14.984Z,7.90
2022-11-06T01:05:15.001Z,7.90
2022-11-06T01:06:14.975Z,7.00
2022-11-06T01:07:14.979Z,7.40
2022-11-06T01:08:15.375Z,9.00
2022-11-06T01:09:14.964Z,10.10
2022-11-06T01:10:14.963Z,10.80
2022-11-06T01:11:14.961Z,9.30
2022-11-06T01:12:15.119Z,9.00
2022-11-06T01:13:14.953Z,8.20
2022-11-06T01:14:14.953Z,9.60
2022-11-06T01:15:14.946Z,7.50
2022-11-06T01:16:14.937Z,6.30
2022-11-06T01:17:14.941Z,7.00
2022-11-06T01:18:15.292Z,7.00
2022-11-06T01:19:14.930Z,8.00
2022-11-06T01:20:14.926Z,7.00
2022-11-06T01:21:14.940Z,7.20
2022-11-06T01:22:14.916Z,7.20
2022-11-06T01:23:14.919Z,8.70
2022-11-06T01:24:14.948Z,6.30
2022-11-06T01:25:14.909Z,7.70
2022-11-06T01:26:14.903Z,7.50
2022-11-06T01:27:30.317Z,6.90
2022-11-06T01:28:15.147Z,7.40
2022-11-06T01:29:14.894Z,7.50
2022-11-06T01:30:14.889Z,7.60
2022-11-06T01:31:14.886Z,8.50
2022-11-06T01:32:14.893Z,6.90
2022-11-06T01:33:14.883Z,6.70
2022-11-06T01:34:14.875Z,7.60
2022-11-06T01:35:14.871Z,7.00
2022-11-06T01:36:15.068Z,6.40
2022-11-06T01:37:15.274Z,6.00
2022-11-06T01:38:15.140Z,7.70
2022-11-06T01:39:14.865Z,6.60
2022-11-06T01:40:14.853Z,6.00
2022-11-06T01:41:14.850Z,6.80
2022-11-06T01:42:14.845Z,6.50
2022-11-06T01:43:14.842Z,6.80
2022-11-06T01:44:14.840Z,9.00
2022-11-06T01:45:14.834Z,8.00
2022-11-06T01:46:14.831Z,8.00
2022-11-06T01:47:14.833Z,7.60
2022-11-06T01:48:15.145Z,5.60
2022-11-06T01:49:14.823Z,7.70
2022-11-06T01:50:14.820Z,6.20
2022-11-06T01:51:14.817Z,5.90
2022-11-06T01:52:14.812Z,5.80
2022-11-06T01:53:14.826Z,6.80
2022-11-06T01:54:14.804Z,6.80
2022-11-06T01:55:14.803Z,7.30
2022-11-06T01:56:14.797Z,7.10
2022-11-06T01:57:14.798Z,7.20
2022-11-06T01:58:15.072Z,7.60
2022-11-06T01:59:14.789Z,7.00
2022-11-06T02:00:14.785Z,6.60
2022-11-06T02:01:14.780Z,6.50
2022-11-06T02:02:14.986Z,6.50
2022-11-06T02:03:14.775Z,5.30
2022-11-06T02:04:14.770Z,6.00
2022-11-06T02:05:14.765Z,6.70
2022-11-06T02:06:14.759Z,6.50
2022-11-06T02:07:14.757Z,5.90
2022-11-06T02:08:15.297Z,7.60
2022-11-06T02:09:14.771Z,7.00
2022-11-06T02:10:14.749Z,6.10
2022-11-06T02:11:14.746Z,8.20
2022-11-06T02:12:14.740Z,6.80
2022-11-06T02:13:14.737Z,7.40
2022-11-06T02:14:14.733Z,7.00
2022-11-06T02:15:14.731Z,5.50
2022-11-06T02:16:14.733Z,5.70
2022-11-06T02:17:14.727Z,6.20
2022-11-06T02:18:15.110Z,7.40
2022-11-06T02:19:14.716Z,4.60
2022-11-06T02:20:14.710Z,6.90
2022-11-06T02:21:14.710Z,7.40
2022-11-06T02:22:14.704Z,6.20
2022-11-06T02:23:14.701Z,5.50
2022-11-06T02:24:14.697Z,6.60
2022-11-06T02:25:14.708Z,7.10
2022-11-06T02:26:14.697Z,5.90
2022-11-06T02:27:14.689Z,7.20
2022-11-06T02:28:14.955Z,6.70
2022-11-06T02:29:14.680Z,7.20
2022-11-06T02:30:14.683Z,5.80
2022-11-06T02:31:14.680Z,7.70
2022-11-06T02:32:14.672Z,5.90
2022-11-06T02:33:14.663Z,5.50
2022-11-06T02:34:14.663Z,6.60
2022-11-06T02:35:14.655Z,7.10
2022-11-06T02:36:14.700Z,6.20
2022-11-06T02:37:14.650Z,5.90
2022-11-06T02:38:15.016Z,7.30
2022-11-06T02:39:14.641Z,8.50
2022-11-06T02:40:14.635Z,5.90
2022-11-06T02:41:14.659Z,6.20
2022-11-06T02:42:14.630Z,5.30
2022-11-06T02:43:14.628Z,7.10
2022-11-06T02:44:14.625Z,5.10
2022-11-06T02:45:14.626Z,5.30
2022-11-06T02:46:14.618Z,4.90
2022-11-06T02:47:14.618Z,6.10
2022-11-06T02:48:15.095Z,6.70
2022-11-06T02:49:14.610Z,5.70
2022-11-06T02:50:14.607Z,6.60
2022-11-06T02:51:14.603Z,5.30
2022-11-06T02:52:14.596Z,5.70
2022-11-06T02:53:14.590Z,6.10
2022-11-06T02:54:14.591Z,5.80
2022-11-06T02:55:14.586Z,5.80
2022-11-06T02:56:14.578Z,5.90
2022-11-06T02:57:14.598Z,6.50
2022-11-06T02:58:14.888Z,6.80
2022-11-06T02:59:14.579Z,6.50
2022-11-06T03:00:14.565Z,5.90
2022-11-06T03:01:14.649Z,6.00
2022-11-06T03:02:14.720Z,6.60
2022-11-06T03:03:14.560Z,7.60
2022-11-06T03:04:14.553Z,8.10
2022-11-06T03:05:14.552Z,5.90
2022-11-06T03:06:14.545Z,5.10
2022-11-06T03:07:14.545Z,5.30
2022-11-06T03:08:15.033Z,7.60
2022-11-06T03:09:14.535Z,5.00
2022-11-06T03:10:14.530Z,6.40
2022-11-06T03:11:14.529Z,6.00
2022-11-06T03:12:14.522Z,6.90
2022-11-06T03:13:14.538Z,7.20
2022-11-06T03:14:14.517Z,5.60
2022-11-06T03:15:14.514Z,6.80
2022-11-06T03:16:14.511Z,5.90
2022-11-06T03:17:14.506Z,5.80
2022-11-06T03:18:14.879Z,5.50
2022-11-06T03:19:14.496Z,7.00
2022-11-06T03:20:14.495Z,6.10
2022-11-06T03:21:14.489Z,6.90
2022-11-06T03:22:14.491Z,6.20
2022-11-06T03:23:14.489Z,6.00
2022-11-06T03:24:14.478Z,6.50
2022-11-06T03:25:14.475Z,6.40
2022-11-06T03:26:14.482Z,5.40
2022-11-06T03:27:14.469Z,5.50
2022-11-06T03:28:15.019Z,5.60
2022-11-06T03:29:14.479Z,5.70
2022-11-06T03:30:16.727Z,5.10
2022-11-06T03:31:14.453Z,5.60
2022-11-06T03:32:14.457Z,6.10
2022-11-06T03:33:14.444Z,5.00
2022-11-06T03:34:14.455Z,5.20
2022-11-06T03:35:14.439Z,7.80
2022-11-06T03:36:14.786Z,5.00
2022-11-06T03:37:14.437Z,6.00
2022-11-06T03:38:14.745Z,5.60
2022-11-06T03:39:14.425Z,7.30
2022-11-06T03:40:14.432Z,6.00
2022-11-06T03:41:14.418Z,6.70
2022-11-06T03:42:14.412Z,6.20
2022-11-06T03:43:14.409Z,7.10
2022-11-06T03:44:14.412Z,6.10
2022-11-06T03:45:14.421Z,5.60
2022-11-06T03:46:14.399Z,5.60
2022-11-06T03:47:14.393Z,5.70
2022-11-06T03:48:14.862Z,5.70
2022-11-06T03:49:14.388Z,6.00
2022-11-06T03:50:14.388Z,5.50
2022-11-06T03:51:14.386Z,6.30
2022-11-06T03:52:14.379Z,6.70
2022-11-06T03:53:14.372Z,5.40
2022-11-06T03:54:14.370Z,7.30
2022-11-06T03:55:14.367Z,6.20
2022-11-06T03:56:14.364Z,6.10
2022-11-06T03:57:14.364Z,5.00
2022-11-06T03:58:14.818Z,6.50
2022-11-06T03:59:14.444Z,5.60
2022-11-06T04:00:14.350Z,4.30
2022-11-06T04:01:14.362Z,5.60
2022-11-06T04:02:14.495Z,6.70
2022-11-06T04:03:14.334Z,5.90
2022-11-06T04:04:14.338Z,5.20
2022-11-06T04:05:14.327Z,5.60
2022-11-06T04:06:14.330Z,5.50
2022-11-06T04:07:14.322Z,5.50
2022-11-06T04:08:14.709Z,6.70
2022-11-06T04:09:14.316Z,6.70
2022-11-06T04:10:14.322Z,7.10
2022-11-06T04:11:14.306Z,7.10
2022-11-06T04:12:14.303Z,5.70
2022-11-06T04:13:14.299Z,5.20
2022-11-06T04:14:14.296Z,5.70
2022-11-06T04:15:14.291Z,5.60
2022-11-06T04:16:14.291Z,5.10
2022-11-06T04:17:14.302Z,6.00
2022-11-06T04:18:14.774Z,6.60
2022-11-06T04:19:14.281Z,6.50
2022-11-06T04:20:14.274Z,5.60
2022-11-06T04:21:14.278Z,4.50
2022-11-06T04:22:14.267Z,5.50
2022-11-06T04:23:14.263Z,7.90
2022-11-06T04:24:14.263Z,5.60
2022-11-06T04:25:14.253Z,5.40
2022-11-06T04:26:14.256Z,5.10
2022-11-06T04:27:14.248Z,5.70
2022-11-06T04:28:14.640Z,5.50
2022-11-06T04:29:14.239Z,5.60
2022-11-06T04:30:14.244Z,4.70
2022-11-06T04:31:14.236Z,5.80
2022-11-06T04:32:14.230Z,6.00
2022-11-06T04:33:14.260Z,6.60
2022-11-06T04:34:14.224Z,6.50
2022-11-06T04:35:14.221Z,6.60
2022-11-06T04:36:14.566Z,6.60
2022-11-06T04:37:14.208Z,6.20
2022-11-06T04:38:14.679Z,5.70
2022-11-06T04:39:14.203Z,4.30
2022-11-06T04:40:14.199Z,6.30
2022-11-06T04:41:14.197Z,6.90
2022-11-06T04:42:14.194Z,5.10
2022-11-06T04:43:14.188Z,6.50
2022-11-06T04:44:14.184Z,4.80
2022-11-06T04:45:14.178Z,5.20
2022-11-06T04:46:14.176Z,7.00
2022-11-06T04:47:14.171Z,6.00
2022-11-06T04:48:14.623Z,6.10
2022-11-06T04:49:14.184Z,4.30
2022-11-06T04:50:14.163Z,5.30
2022-11-06T04:51:14.157Z,5.20
2022-11-06T04:52:14.155Z,5.10
2022-11-06T04:53:14.149Z,5.50
2022-11-06T04:54:14.151Z,4.60
2022-11-06T04:55:14.145Z,6.70
2022-11-06T04:56:16.486Z,5.60
2022-11-06T04:57:14.137Z,4.60
2022-11-06T04:58:14.499Z,5.50
2022-11-06T04:59:14.140Z,5.80
2022-11-06T05:00:14.128Z,5.20
2022-11-06T05:01:14.266Z,5.30
2022-11-06T05:02:14.242Z,4.50
2022-11-06T05:03:14.113Z,5.20
2022-11-06T05:04:14.115Z,6.10
2022-11-06T05:05:14.229Z,5.10
2022-11-06T05:06:14.100Z,5.40
2022-11-06T05:07:14.098Z,5.20
2022-11-06T05:08:14.484Z,6.60
2022-11-06T05:09:14.090Z,5.00
2022-11-06T05:10:14.086Z,4.70
2022-11-06T05:11:14.085Z,5.30
2022-11-06T05:12:14.080Z,5.40
2022-11-06T05:13:14.079Z,6.40
2022-11-06T05:14:14.070Z,5.00
2022-11-06T05:15:14.067Z,6.10
2022-11-06T05:16:14.065Z,5.70
2022-11-06T05:17:14.059Z,5.70
2022-11-06T05:18:14.488Z,6.00
2022-11-06T05:19:14.053Z,6.00
2022-11-06T05:20:14.052Z,4.70
2022-11-06T05:21:14.064Z,5.40
2022-11-06T05:22:14.048Z,4.80
2022-11-06T05:23:14.039Z,4.70
2022-11-06T05:24:14.033Z,5.80
2022-11-06T05:25:14.027Z,5.60
2022-11-06T05:26:14.022Z,4.30
2022-11-06T05:27:14.019Z,5.30
2022-11-06T05:28:14.463Z,5.40
2022-11-06T05:29:14.010Z,4.80
2022-11-06T05:30:14.010Z,4.80
2022-11-06T05:31:14.008Z,5.60
2022-11-06T05:32:13.999Z,5.20
2022-11-06T05:33:13.996Z,6.10
2022-11-06T05:34:13.997Z,6.20
2022-11-06T05:35:13.991Z,5.50
2022-11-06T05:36:13.986Z,6.30
2022-11-06T05:37:13.998Z,4.60
2022-11-06T05:38:14.357Z,4.80
2022-11-06T05:39:13.980Z,4.60
2022-11-06T05:40:13.974Z,5.60
2022-11-06T05:41:13.972Z,5.30
2022-11-06T05:42:13.966Z,5.10
2022-11-06T05:43:13.966Z,5.20
2022-11-06T05:44:13.957Z,5.40
2022-11-06T05:45:13.952Z,6.10
2022-11-06T05:46:42.328Z,5.20
2022-11-06T05:47:13.948Z,5.50
2022-11-06T05:48:14.332Z,5.40
2022-11-06T05:49:13.936Z,4.70
2022-11-06T05:50:13.935Z,4.10
2022-11-06T05:51:13.933Z,6.00
2022-11-06T05:52:13.925Z,5.80
2022-11-06T05:53:13.972Z,4.90
2022-11-06T05:54:13.918Z,5.10
2022-11-06T05:55:15.348Z,6.10
2022-11-06T05:56:13.913Z,6.30
2022-11-06T05:57:13.912Z,5.00
2022-11-06T05:58:14.252Z,5.70
2022-11-06T05:59:13.914Z,4.10
2022-11-06T06:00:13.897Z,7.00
2022-11-06T06:01:13.897Z,5.60
2022-11-06T06:02:14.179Z,5.10
2022-11-06T06:03:14.012Z,5.30
2022-11-06T06:04:13.891Z,4.00
2022-11-06T06:05:13.878Z,6.90
2022-11-06T06:06:13.873Z,5.10
2022-11-06T06:07:13.874Z,4.60
2022-11-06T06:08:14.211Z,5.60
2022-11-06T06:09:13.878Z,4.00
2022-11-06T06:10:13.863Z,6.70
2022-11-06T06:11:13.850Z,4.60
2022-11-06T06:12:13.847Z,5.40
2022-11-06T06:13:13.847Z,6.80
2022-11-06T06:14:13.842Z,4.80
2022-11-06T06:15:13.835Z,5.10
2022-11-06T06:16:13.837Z,5.30
2022-11-06T06:17:13.832Z,4.20
2022-11-06T06:18:14.161Z,4.40
2022-11-06T06:19:13.819Z,5.10
2022-11-06T06:20:13.818Z,4.50
2022-11-06T06:21:13.817Z,5.60
2022-11-06T06:22:13.809Z,6.40
2022-11-06T06:23:13.807Z,6.60
2022-11-06T06:24:13.860Z,4.60
2022-11-06T06:25:22.365Z,5.00
2022-11-06T06:26:13.795Z,5.30
2022-11-06T06:27:13.789Z,4.90
2022-11-06T06:28:14.106Z,4.10
2022-11-06T06:29:13.804Z,4.00
2022-11-06T06:30:13.781Z,4.70
2022-11-06T06:31:13.774Z,4.00
2022-11-06T06:32:13.773Z,5.00
2022-11-06T06:33:13.766Z,4.80
2022-11-06T06:34:13.766Z,6.10
2022-11-06T06:35:13.759Z,4.90
2022-11-06T06:36:13.757Z,4.40
2022-11-06T06:37:17.699Z,5.50
2022-11-06T06:38:14.091Z,5.50
2022-11-06T06:39:13.753Z,6.10
2022-11-06T06:40:13.740Z,3.90
2022-11-06T06:41:13.757Z,5.40
2022-11-06T06:42:13.735Z,5.00
2022-11-06T06:43:13.727Z,6.00
2022-11-06T06:44:13.732Z,4.20
2022-11-06T06:45:13.725Z,6.10
2022-11-06T06:46:13.723Z,5.00
2022-11-06T06:47:13.718Z,4.10
2022-11-06T06:48:14.049Z,4.50
2022-11-06T06:49:13.715Z,5.90
2022-11-06T06:50:13.706Z,4.90
2022-11-06T06:51:13.697Z,4.30
2022-11-06T06:52:13.702Z,5.20
2022-11-06T06:53:13.687Z,5.50
2022-11-06T06:54:13.689Z,4.80
2022-11-06T06:55:13.683Z,5.10
2022-11-06T06:56:13.676Z,5.70
2022-11-06T06:57:13.692Z,4.30
2022-11-06T06:58:17.873Z,4.80
2022-11-06T06:59:13.664Z,5.70
2022-11-06T07:00:13.662Z,5.70
2022-11-06T07:01:13.750Z,4.90
2022-11-06T07:02:13.748Z,5.00
2022-11-06T07:03:13.650Z,5.30
2022-11-06T07:04:13.644Z,5.20
2022-11-06T07:05:13.640Z,5.10
2022-11-06T07:06:13.641Z,4.20
2022-11-06T07:07:13.634Z,4.20
2022-11-06T07:08:13.915Z,7.60
2022-11-06T07:09:13.628Z,5.60
2022-11-06T07:10:13.624Z,5.30
2022-11-06T07:11:13.616Z,5.40
2022-11-06T07:12:13.615Z,5.80
2022-11-06T07:13:14.107Z,5.10
2022-11-06T07:14:13.605Z,7.20
2022-11-06T07:15:13.605Z,4.70
2022-11-06T07:16:13.597Z,6.90
2022-11-06T07:17:13.594Z,5.40
2022-11-06T07:18:13.812Z,5.30
2022-11-06T07:19:13.644Z,6.10
2022-11-06T07:20:13.600Z,5.70
2022-11-06T07:21:13.582Z,5.60
2022-11-06T07:22:13.575Z,5.00
2022-11-06T07:23:13.571Z,4.50
2022-11-06T07:24:13.567Z,5.70
2022-11-06T07:25:13.565Z,6.20
2022-11-06T07:26:13.561Z,6.10
2022-11-06T07:27:13.555Z,4.60
2022-11-06T07:28:13.729Z,6.40
2022-11-06T07:29:13.663Z,4.10
2022-11-06T07:30:13.548Z,5.00
2022-11-06T07:31:13.540Z,4.60
2022-11-06T07:32:13.541Z,6.60
2022-11-06T07:33:13.542Z,5.50
2022-11-06T07:34:13.528Z,5.60
2022-11-06T07:35:13.527Z,5.10
2022-11-06T07:36:13.520Z,3.90
2022-11-06T07:37:13.521Z,4.30
2022-11-06T07:38:13.774Z,4.60
2022-11-06T07:39:13.512Z,5.90
2022-11-06T07:40:13.506Z,4.00
2022-11-06T07:41:13.504Z,4.30
2022-11-06T07:42:13.500Z,4.70
2022-11-06T07:43:13.496Z,7.30
2022-11-06T07:44:13.489Z,4.60
2022-11-06T07:45:13.596Z,5.00
2022-11-06T07:46:13.485Z,5.80
2022-11-06T07:47:13.480Z,5.60
2022-11-06T07:48:13.759Z,4.30
2022-11-06T07:49:13.476Z,5.50
2022-11-06T07:50:13.466Z,4.30
2022-11-06T07:51:13.481Z,5.60
2022-11-06T07:52:13.471Z,4.50
2022-11-06T07:53:13.815Z,5.20
2022-11-06T07:54:13.455Z,5.20
2022-11-06T07:55:13.452Z,4.30
2022-11-06T07:56:13.450Z,7.80
2022-11-06T07:57:13.445Z,4.60
2022-11-06T07:58:13.720Z,5.80
2022-11-06T07:59:13.434Z,4.30
2022-11-06T08:00:13.436Z,5.50
2022-11-06T08:01:17.937Z,5.30
2022-11-06T08:02:13.655Z,5.40
2022-11-06T08:03:13.423Z,7.00
2022-11-06T08:04:13.414Z,5.90
2022-11-06T08:05:13.414Z,5.10
2022-11-06T08:06:13.412Z,7.10
2022-11-06T08:07:13.404Z,4.20
2022-11-06T08:08:13.623Z,5.40
2022-11-06T08:09:13.399Z,4.50
2022-11-06T08:10:13.393Z,4.70
2022-11-06T08:11:13.390Z,6.50
2022-11-06T08:12:13.384Z,4.90
2022-11-06T08:13:13.387Z,5.30
2022-11-06T08:14:13.379Z,5.60
2022-11-06T08:15:13.374Z,3.90
2022-11-06T08:16:13.368Z,4.20
2022-11-06T08:17:13.387Z,5.70
2022-11-06T08:18:13.849Z,4.20
2022-11-06T08:19:13.363Z,4.30
2022-11-06T08:20:13.354Z,5.90
2022-11-06T08:21:13.359Z,4.90
2022-11-06T08:22:13.349Z,3.50
2022-11-06T08:23:13.348Z,6.00
2022-11-06T08:24:17.638Z,5.40
2022-11-06T08:25:13.340Z,4.10
2022-11-06T08:26:13.336Z,4.80
2022-11-06T08:27:13.330Z,5.40
2022-11-06T08:28:13.676Z,4.40
2022-11-06T08:29:13.324Z,5.40
2022-11-06T08:30:13.319Z,5.90
2022-11-06T08:31:13.323Z,4.00
2022-11-06T08:32:13.313Z,5.60
2022-11-06T08:33:13.331Z,6.00
2022-11-06T08:34:13.309Z,5.90
2022-11-06T08:35:13.304Z,6.20
2022-11-06T08:36:13.305Z,5.70
2022-11-06T08:37:13.295Z,6.20
2022-11-06T08:38:13.672Z,5.50
2022-11-06T08:39:13.295Z,6.30
2022-11-06T08:40:13.282Z,6.00
2022-11-06T08:41:13.280Z,5.20
2022-11-06T08:42:13.275Z,4.50
2022-11-06T08:43:13.679Z,4.90
2022-11-06T08:44:13.269Z,6.10
2022-11-06T08:45:13.270Z,7.20
2022-11-06T08:46:13.260Z,5.30
2022-11-06T08:47:13.261Z,6.10
2022-11-06T08:48:13.253Z,7.20
2022-11-06T08:49:13.270Z,5.70
2022-11-06T08:50:13.250Z,4.40
2022-11-06T08:51:13.246Z,4.90
2022-11-06T08:52:13.237Z,6.40
2022-11-06T08:53:13.578Z,3.60
2022-11-06T08:54:13.376Z,6.70
2022-11-06T08:55:13.231Z,6.00
2022-11-06T08:56:13.232Z,5.10
2022-11-06T08:57:13.227Z,5.20
2022-11-06T08:58:13.221Z,5.90
2022-11-06T08:59:13.214Z,6.60
2022-11-06T09:00:13.210Z,4.90
2022-11-06T09:01:13.300Z,5.50
2022-11-06T09:02:13.285Z,5.10
2022-11-06T09:03:13.615Z,6.00
2022-11-06T09:04:13.196Z,5.80
2022-11-06T09:05:13.213Z,5.60
2022-11-06T09:06:13.191Z,6.90
2022-11-06T09:07:13.187Z,4.50
2022-11-06T09:08:13.185Z,5.40
2022-11-06T09:09:13.182Z,6.30
2022-11-06T09:10:13.177Z,5.90
2022-11-06T09:11:13.219Z,4.50
2022-11-06T09:12:13.172Z,4.70
2022-11-06T09:13:13.652Z,4.40
2022-11-06T09:14:13.169Z,5.50
2022-11-06T09:15:13.164Z,5.30
2022-11-06T09:16:15.980Z,5.40
2022-11-06T09:17:13.154Z,4.50
2022-11-06T09:18:13.157Z,5.50
2022-11-06T09:19:13.148Z,5.30
2022-11-06T09:20:13.142Z,5.40
2022-11-06T09:21:13.166Z,5.00
2022-11-06T09:22:13.138Z,5.40
2022-11-06T09:23:13.373Z,5.70
2022-11-06T09:24:13.130Z,4.90
2022-11-06T09:25:13.126Z,4.80
2022-11-06T09:26:13.121Z,5.00
2022-11-06T09:27:13.118Z,4.90
2022-11-06T09:28:13.117Z,5.00
2022-11-06T09:29:13.112Z,5.10
2022-11-06T09:30:13.107Z,4.20
2022-11-06T09:31:13.110Z,4.90
2022-11-06T09:32:13.102Z,5.50
2022-11-06T09:33:13.949Z,4.80
2022-11-06T09:34:13.100Z,5.70
2022-11-06T09:35:13.108Z,3.50
2022-11-06T09:36:13.089Z,6.40
2022-11-06T09:37:13.204Z,4.00
2022-11-06T09:38:13.084Z,5.50
2022-11-06T09:39:13.078Z,5.00
2022-11-06T09:40:13.076Z,5.00
2022-11-06T09:41:13.073Z,4.20
2022-11-06T09:42:13.074Z,6.50
2022-11-06T09:43:13.522Z,4.10
2022-11-06T09:44:13.064Z,4.10
2022-11-06T09:45:13.058Z,4.40
2022-11-06T09:46:13.053Z,5.10
2022-11-06T09:47:13.054Z,5.30
2022-11-06T09:48:13.045Z,4.50
2022-11-06T09:49:13.045Z,4.10
2022-11-06T09:50:13.043Z,5.40
2022-11-06T09:51:13.040Z,5.80
2022-11-06T09:52:13.035Z,4.50
2022-11-06T09:53:13.178Z,4.30
2022-11-06T09:54:13.027Z,4.80
2022-11-06T09:55:13.024Z,4.00
2022-11-06T09:56:13.024Z,4.60
2022-11-06T09:57:13.019Z,4.70
2022-11-06T09:58:13.339Z,5.80
2022-11-06T09:59:13.014Z,5.60
2022-11-06T10:00:13.305Z,4.90
2022-11-06T10:01:19.530Z,3.70
2022-11-06T10:02:13.150Z,5.60
2022-11-06T10:03:13.400Z,4.60
2022-11-06T10:04:12.993Z,5.50
2022-11-06T10:05:12.994Z,4.10
2022-11-06T10:06:12.988Z,4.90
2022-11-06T10:07:12.989Z,3.90
2022-11-06T10:08:13.326Z,6.60
2022-11-06T10:09:12.997Z,5.80
2022-11-06T10:10:12.973Z,5.30
2022-11-06T10:11:12.983Z,5.00
2022-11-06T10:12:12.969Z,4.70
2022-11-06T10:13:17.230Z,4.90
2022-11-06T10:14:12.960Z,6.00
2022-11-06T10:15:12.962Z,5.90
2022-11-06T10:16:12.954Z,5.60
2022-11-06T10:17:12.951Z,6.40
2022-11-06T10:18:13.243Z,6.20
2022-11-06T10:19:12.945Z,5.40
2022-11-06T10:20:12.945Z,5.90
2022-11-06T10:21:12.946Z,4.30
2022-11-06T10:22:12.937Z,5.30
2022-11-06T10:23:12.932Z,5.80
2022-11-06T10:24:12.927Z,5.20
2022-11-06T10:25:12.947Z,5.40
2022-11-06T10:26:12.923Z,5.10
2022-11-06T10:27:12.922Z,4.30
2022-11-06T10:28:13.203Z,4.40
2022-11-06T10:29:12.926Z,4.80
2022-11-06T10:30:12.914Z,5.30
2022-11-06T10:31:12.927Z,4.80
2022-11-06T10:32:12.906Z,4.60
2022-11-06T10:33:12.903Z,6.00
2022-11-06T10:34:12.897Z,5.20
2022-11-06T10:35:12.898Z,5.80
2022-11-06T10:36:12.892Z,4.40
2022-11-06T10:37:12.891Z,4.60
2022-11-06T10:38:13.276Z,5.80
2022-11-06T10:39:12.887Z,5.30
2022-11-06T10:40:12.877Z,4.20
2022-11-06T10:41:12.896Z,5.20
2022-11-06T10:42:12.873Z,4.90
2022-11-06T10:43:12.873Z,6.50
2022-11-06T10:44:12.866Z,4.50
2022-11-06T10:45:12.865Z,5.10
2022-11-06T10:46:12.862Z,4.30
2022-11-06T10:47:12.860Z,5.00
2022-11-06T10:48:13.193Z,4.90
2022-11-06T10:49:12.850Z,4.30
2022-11-06T10:50:12.846Z,4.80
2022-11-06T10:51:12.847Z,4.70
2022-11-06T10:52:12.841Z,5.30
2022-11-06T10:53:12.838Z,4.90
2022-11-06T10:54:12.840Z,6.30
2022-11-06T10:55:12.833Z,4.50
2022-11-06T10:56:15.792Z,4.30
2022-11-06T10:57:12.858Z,3.70
2022-11-06T10:58:13.223Z,5.10
2022-11-06T10:59:12.825Z,4.60
2022-11-06T11:00:12.814Z,4.00
2022-11-06T11:01:12.854Z,4.90
2022-11-06T11:02:12.858Z,5.00
2022-11-06T11:03:12.810Z,3.70
2022-11-06T11:04:12.802Z,5.20
2022-11-06T11:05:12.806Z,4.90
2022-11-06T11:06:12.801Z,4.50
2022-11-06T11:07:16.374Z,5.90
2022-11-06T11:08:13.073Z,4.10
2022-11-06T11:09:12.793Z,5.10
2022-11-06T11:10:12.787Z,4.40
2022-11-06T11:11:12.783Z,5.80
2022-11-06T11:12:12.785Z,4.00
2022-11-06T11:13:12.793Z,6.70
2022-11-06T11:14:12.772Z,7.70
2022-11-06T11:15:12.784Z,4.20
2022-11-06T11:16:12.766Z,4.60
2022-11-06T11:17:12.768Z,5.60
2022-11-06T11:18:13.377Z,6.10
2022-11-06T11:19:12.762Z,6.40
2022-11-06T11:20:12.766Z,5.80
2022-11-06T11:21:12.750Z,5.00
2022-11-06T11:22:12.745Z,4.70
2022-11-06T11:23:12.802Z,3.90
2022-11-06T11:24:12.743Z,7.20
2022-11-06T11:25:12.741Z,4.60
2022-11-06T11:26:12.749Z,6.30
2022-11-06T11:27:12.743Z,5.00
2022-11-06T11:28:12.840Z,5.70
2022-11-06T11:29:12.762Z,5.60
2022-11-06T11:30:12.724Z,4.40
2022-11-06T11:31:12.721Z,5.20
2022-11-06T11:32:12.718Z,5.30
2022-11-06T11:33:12.714Z,4.50
2022-11-06T11:34:12.717Z,5.50
2022-11-06T11:35:12.708Z,4.00
2022-11-06T11:36:12.702Z,5.40
2022-11-06T11:37:12.704Z,5.30
2022-11-06T11:38:13.061Z,5.60
2022-11-06T11:39:12.694Z,5.30
2022-11-06T11:40:13.588Z,4.10
2022-11-06T11:41:12.690Z,6.00
2022-11-06T11:42:12.691Z,5.70
2022-11-06T11:43:12.685Z,4.60
2022-11-06T11:44:12.683Z,5.00
2022-11-06T11:45:12.692Z,4.30
2022-11-06T11:46:12.680Z,4.10
2022-11-06T11:47:12.670Z,5.40
2022-11-06T11:48:13.070Z,7.00
2022-11-06T11:49:12.662Z,5.50
2022-11-06T11:50:12.661Z,5.00
2022-11-06T11:51:12.677Z,4.50
2022-11-06T11:52:12.657Z,4.90
2022-11-06T11:53:12.650Z,4.80
2022-11-06T11:54:12.652Z,5.00
2022-11-06T11:55:12.644Z,6.70
2022-11-06T11:56:12.650Z,5.10
2022-11-06T11:57:12.639Z,5.30
2022-11-06T11:58:13.017Z,5.60
2022-11-06T11:59:12.631Z,5.40
2022-11-06T12:00:12.638Z,5.20
2022-11-06T12:01:12.649Z,5.70
2022-11-06T12:02:12.919Z,5.60
2022-11-06T12:03:12.823Z,5.70
2022-11-06T12:04:12.621Z,4.80
2022-11-06T12:05:12.615Z,6.00
2022-11-06T12:06:12.623Z,4.90
2022-11-06T12:07:12.611Z,5.90
2022-11-06T12:08:13.026Z,4.10
2022-11-06T12:09:12.603Z,5.70
2022-11-06T12:10:12.599Z,5.70
2022-11-06T12:11:12.593Z,4.80
2022-11-06T12:12:12.594Z,4.70
2022-11-06T12:13:12.587Z,4.60
2022-11-06T12:14:12.584Z,5.30
2022-11-06T12:15:12.582Z,5.40
2022-11-06T12:16:12.579Z,4.20
2022-11-06T12:17:12.595Z,3.90
2022-11-06T12:18:12.886Z,4.10
2022-11-06T12:19:12.569Z,4.70
2022-11-06T12:20:12.569Z,4.40
2022-11-06T12:21:12.562Z,5.80
2022-11-06T12:22:12.562Z,5.90
2022-11-06T12:23:12.559Z,4.80
2022-11-06T12:24:12.553Z,4.60
2022-11-06T12:25:12.549Z,4.50
2022-11-06T12:26:12.553Z,5.00
2022-11-06T12:27:12.552Z,4.60
2022-11-06T12:28:12.965Z,5.70
2022-11-06T12:29:12.542Z,7.20
2022-11-06T12:30:12.537Z,4.30
2022-11-06T12:31:12.537Z,6.00
2022-11-06T12:32:12.536Z,4.10
2022-11-06T12:33:12.668Z,4.70
2022-11-06T12:34:17.233Z,4.70
2022-11-06T12:35:12.519Z,5.10
2022-11-06T12:36:12.518Z,4.70
2022-11-06T12:37:12.514Z,4.50
2022-11-06T12:38:12.945Z,5.30
2022-11-06T12:39:12.507Z,6.10
2022-11-06T12:40:12.506Z,5.10
2022-11-06T12:41:12.508Z,4.20
2022-11-06T12:42:12.500Z,4.30
2022-11-06T12:43:12.493Z,4.30
2022-11-06T12:44:12.491Z,5.20
2022-11-06T12:45:12.490Z,5.00
2022-11-06T12:46:12.485Z,6.30
2022-11-06T12:47:12.492Z,5.70
2022-11-06T12:48:12.795Z,4.40
2022-11-06T12:49:12.494Z,6.40
2022-11-06T12:50:12.476Z,4.40
2022-11-06T12:51:12.499Z,5.40
2022-11-06T12:52:12.468Z,5.70
2022-11-06T12:53:12.463Z,5.30
2022-11-06T12:54:12.467Z,4.70
2022-11-06T12:55:12.457Z,4.50
2022-11-06T12:56:12.457Z,5.70
2022-11-06T12:57:12.452Z,4.60
2022-11-06T12:58:12.802Z,4.40
2022-11-06T12:59:12.443Z,4.90
2022-11-06T13:00:12.545Z,4.10
2022-11-06T13:01:12.481Z,4.60
2022-11-06T13:02:12.581Z,5.10
2022-11-06T13:03:12.431Z,5.50
2022-11-06T13:04:12.432Z,4.90
2022-11-06T13:05:12.447Z,4.30
2022-11-06T13:06:13.509Z,4.70
2022-11-06T13:07:12.424Z,5.50
2022-11-06T13:08:12.779Z,6.10
2022-11-06T13:09:12.412Z,4.50
2022-11-06T13:10:12.507Z,4.00
2022-11-06T13:11:12.408Z,5.90
2022-11-06T13:12:12.405Z,3.80
2022-11-06T13:13:15.163Z,5.90
2022-11-06T13:14:12.399Z,3.70
2022-11-06T13:15:12.400Z,5.10
2022-11-06T13:16:12.398Z,4.20
2022-11-06T13:17:12.395Z,4.20